Time;durP1;ratioP1;P1;durP2;ratioP2;P2;SDS_P1;SDS_P2;PMS_P1;PMS_P2;Temp;Humidity;BMP_temperature;BMP_pressure;BME280_temperature;BME280_humidity;BME280_pressure;Samples;Min_cycle;Max_cycle;Signal;HPM_P1;HPM_P2
2023/07/01 00:00:55;;;;;;;4.37;4.23;;;19.70;99.90;;;;;;4970713;28;21033;-91
2023/07/01 00:03:21;;;;;;;4.97;4.77;;;19.70;99.90;;;;;;4983552;28;20284;-92
2023/07/01 00:05:47;;;;;;;5.30;5.10;;;19.70;99.90;;;;;;4969353;28;20183;-92
2023/07/01 00:08:13;;;;;;;5.60;5.17;;;19.70;99.90;;;;;;4966866;28;20508;-92
2023/07/01 00:10:38;;;;;;;4.77;4.60;;;19.70;99.90;;;;;;4965465;28;20284;-91
2023/07/01 00:13:04;;;;;;;4.83;4.40;;;19.70;99.90;;;;;;4968280;28;20197;-91
2023/07/01 00:15:29;;;;;;;4.80;4.60;;;19.60;99.90;;;;;;4967334;28;20213;-91
2023/07/01 00:17:55;;;;;;;4.90;4.60;;;19.60;99.90;;;;;;4978722;28;20225;-91
2023/07/01 00:20:21;;;;;;;5.00;4.70;;;19.50;99.90;;;;;;4972635;28;20485;-91
2023/07/01 00:22:47;;;;;;;4.53;4.33;;;19.50;99.90;;;;;;4969663;28;20886;-91
2023/07/01 00:25:13;;;;;;;4.50;4.30;;;19.50;99.90;;;;;;4969010;28;20448;-91
2023/07/01 00:27:38;;;;;;;4.73;4.43;;;19.50;99.90;;;;;;4967441;28;20997;-91
2023/07/01 00:30:04;;;;;;;4.47;4.37;;;19.50;99.90;;;;;;4987116;28;20213;-91
2023/07/01 00:32:30;;;;;;;4.73;4.53;;;19.40;99.90;;;;;;4976348;28;20198;-91
2023/07/01 00:34:56;;;;;;;4.23;4.13;;;19.40;99.90;;;;;;4967995;28;20491;-91
2023/07/01 00:37:21;;;;;;;4.63;4.37;;;19.40;99.90;;;;;;4969986;28;20592;-91
2023/07/01 00:39:47;;;;;;;5.33;4.93;;;19.40;99.90;;;;;;4971114;28;20187;-90
2023/07/01 00:42:13;;;;;;;5.27;4.87;;;19.40;99.90;;;;;;4970136;28;20205;-91
2023/07/01 00:44:39;;;;;;;4.57;4.43;;;19.40;99.90;;;;;;4970561;28;20193;-90
2023/07/01 00:47:05;;;;;;;4.50;4.27;;;19.30;99.90;;;;;;4971332;28;20444;-91
2023/07/01 00:49:31;;;;;;;4.63;4.43;;;19.40;99.90;;;;;;4966500;28;20288;-91
2023/07/01 00:51:57;;;;;;;4.50;4.30;;;19.30;99.90;;;;;;4990220;28;21201;-90
2023/07/01 00:54:24;;;;;;;4.67;4.50;;;19.30;99.90;;;;;;4974317;28;20464;-90
2023/07/01 00:56:50;;;;;;;4.03;3.83;;;19.30;99.90;;;;;;4987025;28;20245;-90
2023/07/01 00:59:15;;;;;;;4.80;4.70;;;19.30;99.90;;;;;;4969634;28;20440;-90
2023/07/01 01:01:46;;;;;;;5.60;5.23;;;19.20;99.90;;;;;;4985923;28;20186;-90
2023/07/01 01:04:29;;;;;;;5.40;5.00;;;19.20;99.90;;;;;;4982744;28;20192;-90
2023/07/01 01:07:12;;;;;;;5.00;4.70;;;19.20;99.90;;;;;;4971706;28;20482;-91
2023/07/01 01:09:50;;;;;;;4.73;4.53;;;19.20;99.90;;;;;;4985105;28;20495;-93
2023/07/01 01:12:23;;;;;;;4.10;3.80;;;19.10;99.90;;;;;;4976016;28;20506;-93
2023/07/01 01:14:53;;;;;;;5.03;4.73;;;19.20;99.90;;;;;;4989151;28;20472;-94
2023/07/01 01:17:21;;;;;;;3.97;3.87;;;19.20;99.90;;;;;;4990947;23;20535;-85
2023/07/01 01:23:24;;;;;;;4.80;4.60;;;19.10;99.90;;;;;;4959047;28;20553;-85
2023/07/01 01:26:00;;;;;;;4.70;4.50;;;19.10;99.90;;;;;;4963386;28;20429;-86
2023/07/01 01:28:26;;;;;;;4.37;4.10;;;19.10;99.90;;;;;;4963832;28;20599;-87
2023/07/01 01:30:52;;;;;;;4.30;4.20;;;19.10;99.90;;;;;;4965137;28;21232;-86
2023/07/01 01:33:17;;;;;;;4.00;3.90;;;19.10;99.90;;;;;;4958325;28;20465;-85
2023/07/01 01:35:44;;;;;;;4.10;3.90;;;19.00;99.90;;;;;;4964046;28;20615;-86
2023/07/01 01:38:22;;;;;;;4.80;4.60;;;19.00;99.90;;;;;;4955870;28;20199;-86
2023/07/01 01:40:58;;;;;;;4.30;4.03;;;19.10;99.90;;;;;;4962893;28;20527;-86
2023/07/01 01:43:42;;;;;;;4.80;4.20;;;19.10;99.90;;;;;;4964364;28;20929;-87
2023/07/01 01:46:09;;;;;;;4.30;4.10;;;19.10;99.90;;;;;;4966004;28;20508;-86
2023/07/01 01:48:37;;;;;;;4.40;4.30;;;19.10;99.90;;;;;;4960785;28;20461;-86
2023/07/01 01:51:06;;;;;;;4.27;4.07;;;19.10;99.90;;;;;;4963899;28;20449;-85
2023/07/01 01:53:34;;;;;;;4.40;4.00;;;19.10;99.90;;;;;;4967255;28;20500;-86
2023/07/01 01:56:01;;;;;;;4.67;4.47;;;19.10;99.90;;;;;;4963860;28;20494;-86
2023/07/01 01:58:27;;;;;;;4.63;4.23;;;19.00;99.90;;;;;;4970505;28;20880;-86
2023/07/01 02:00:52;;;;;;;4.23;4.10;;;19.10;99.90;;;;;;4966007;28;20442;-86
2023/07/01 02:03:18;;;;;;;3.83;3.73;;;19.00;99.90;;;;;;4966709;28;20487;-85
2023/07/01 02:05:44;;;;;;;4.10;4.00;;;19.00;99.90;;;;;;4960573;28;20194;-86
2023/07/01 02:08:09;;;;;;;4.13;3.93;;;18.90;99.90;;;;;;4964625;28;20186;-86
2023/07/01 02:10:35;;;;;;;4.00;3.90;;;19.00;99.90;;;;;;4959883;28;20225;-87
2023/07/01 02:13:02;;;;;;;4.40;4.20;;;19.00;99.90;;;;;;4965957;28;20280;-85
2023/07/01 02:15:28;;;;;;;3.50;3.40;;;18.90;99.90;;;;;;4970227;28;20272;-87
2023/07/01 02:17:53;;;;;;;4.33;4.13;;;18.80;99.90;;;;;;4945814;28;21075;-85
2023/07/01 02:20:19;;;;;;;4.50;4.30;;;18.80;99.90;;;;;;4945937;28;20205;-86
2023/07/01 02:22:45;;;;;;;4.40;4.30;;;18.80;99.90;;;;;;4947554;29;20244;-87
2023/07/01 02:25:10;;;;;;;4.10;3.90;;;18.90;99.90;;;;;;4941755;28;20207;-86
2023/07/01 02:27:36;;;;;;;4.40;4.30;;;18.80;99.90;;;;;;4942213;29;20186;-86
2023/07/01 02:30:02;;;;;;;3.90;3.80;;;18.90;99.90;;;;;;4939843;29;20865;-85
2023/07/01 02:32:29;;;;;;;5.10;4.23;;;18.90;99.90;;;;;;4937034;28;20281;-86
2023/07/01 02:34:54;;;;;;;5.40;4.17;;;18.90;99.90;;;;;;4958585;29;20465;-87
2023/07/01 02:37:20;;;;;;;4.37;4.17;;;18.90;99.90;;;;;;4958196;28;21020;-86
2023/07/01 02:39:46;;;;;;;4.57;4.37;;;18.90;99.90;;;;;;4956377;29;20186;-86
2023/07/01 02:42:15;;;;;;;3.93;3.60;;;18.90;99.90;;;;;;4939198;29;20178;-85
2023/07/01 02:44:41;;;;;;;4.47;4.37;;;18.90;99.90;;;;;;4941896;28;20983;-84
2023/07/01 02:47:07;;;;;;;4.47;4.27;;;18.90;99.90;;;;;;4944291;29;20449;-86
2023/07/01 02:49:33;;;;;;;4.60;4.30;;;18.90;99.90;;;;;;4940726;28;20453;-85
2023/07/01 02:51:58;;;;;;;3.83;3.73;;;18.90;99.90;;;;;;4944355;29;20183;-86
2023/07/01 02:54:24;;;;;;;3.97;3.73;;;18.80;99.90;;;;;;4940914;29;20277;-85
2023/07/01 02:56:49;;;;;;;3.77;3.60;;;18.80;99.90;;;;;;4945003;29;20177;-85
2023/07/01 02:59:15;;;;;;;4.37;4.07;;;18.90;99.90;;;;;;4940198;29;20951;-86
2023/07/01 03:01:44;;;;;;;3.37;3.27;;;18.90;99.90;;;;;;4945096;29;20183;-87
2023/07/01 03:04:10;;;;;;;3.80;3.70;;;18.90;99.90;;;;;;4939501;29;20182;-85
2023/07/01 03:06:37;;;;;;;4.67;4.40;;;18.90;99.90;;;;;;4945330;29;20430;-86
2023/07/01 03:09:07;;;;;;;4.00;3.83;;;18.80;99.90;;;;;;4940552;29;20507;-86
2023/07/01 03:11:34;;;;;;;3.97;3.97;;;18.70;99.90;;;;;;4944500;29;20415;-86
2023/07/01 03:14:00;;;;;;;3.80;3.70;;;18.70;99.90;;;;;;4943528;29;20438;-84
2023/07/01 03:16:25;;;;;;;4.20;4.10;;;18.70;99.90;;;;;;4952538;28;20468;-85
2023/07/01 03:18:51;;;;;;;6.13;3.93;;;18.70;99.90;;;;;;4945076;28;20234;-86
2023/07/01 03:21:17;;;;;;;4.20;4.20;;;18.70;99.90;;;;;;4948920;29;20274;-87
2023/07/01 03:23:42;;;;;;;3.80;3.70;;;18.70;99.90;;;;;;4945233;28;20195;-86
2023/07/01 03:26:08;;;;;;;4.20;4.03;;;18.70;99.90;;;;;;4946319;29;20665;-85
2023/07/01 03:28:33;;;;;;;4.73;3.70;;;18.80;99.90;;;;;;4946532;29;20855;-87
2023/07/01 03:30:59;;;;;;;3.47;3.47;;;18.80;99.90;;;;;;4944297;29;20248;-85
2023/07/01 03:33:25;;;;;;;4.57;4.30;;;18.80;99.90;;;;;;4946969;29;20183;-86
2023/07/01 03:35:50;;;;;;;3.50;3.40;;;18.90;99.90;;;;;;4943578;28;20299;-86
2023/07/01 03:38:16;;;;;;;3.60;3.50;;;18.90;99.90;;;;;;4941897;29;20190;-86
2023/07/01 03:40:41;;;;;;;3.90;3.70;;;18.80;99.90;;;;;;4933196;29;20199;-86
2023/07/01 03:43:07;;;;;;;3.47;3.40;;;18.80;99.90;;;;;;4949347;29;20213;-85
2023/07/01 03:45:32;;;;;;;4.30;4.20;;;18.90;99.90;;;;;;4946907;28;20277;-85
2023/07/01 03:47:58;;;;;;;3.60;3.50;;;19.00;99.90;;;;;;4945659;29;20178;-85
2023/07/01 03:50:24;;;;;;;3.67;3.57;;;19.00;99.90;;;;;;4944971;29;20230;-87
2023/07/01 03:52:50;;;;;;;4.30;4.00;;;19.10;99.90;;;;;;4949310;29;20194;-85
2023/07/01 03:55:15;;;;;;;4.00;3.80;;;19.10;99.90;;;;;;4942345;28;20206;-86
2023/07/01 03:57:41;;;;;;;2.83;2.73;;;19.00;99.90;;;;;;4933402;29;20948;-87
2023/07/01 04:00:17;;;;;;;3.20;3.10;;;19.00;99.90;;;;;;4943303;29;20277;-84
2023/07/01 04:02:49;;;;;;;3.37;3.17;;;19.10;99.90;;;;;;4944122;29;20422;-86
2023/07/01 04:05:16;;;;;;;3.13;2.90;;;19.10;99.90;;;;;;4940395;28;20450;-86
2023/07/01 04:07:44;;;;;;;2.70;2.70;;;19.20;99.90;;;;;;4947093;29;20430;-86
2023/07/01 04:10:10;;;;;;;3.17;2.97;;;19.20;99.90;;;;;;4940077;29;20452;-86
2023/07/01 04:12:37;;;;;;;3.23;3.03;;;19.30;99.90;;;;;;4942755;29;20434;-87
2023/07/01 04:15:09;;;;;;;3.97;3.30;;;19.10;99.90;;;;;;4943036;29;20462;-86
2023/07/01 04:17:35;;;;;;;2.90;2.70;;;19.10;99.90;;;;;;4942110;28;20505;-87
2023/07/01 04:20:03;;;;;;;3.07;2.87;;;19.10;99.90;;;;;;4932052;29;20525;-86
2023/07/01 04:22:28;;;;;;;3.40;3.13;;;19.20;99.90;;;;;;4945832;29;21138;-86
2023/07/01 04:24:54;;;;;;;2.70;2.60;;;19.20;99.90;;;;;;4942340;29;20443;-86
2023/07/01 04:27:19;;;;;;;3.17;2.97;;;19.20;99.90;;;;;;4948929;29;20258;-86
2023/07/01 04:29:45;;;;;;;2.80;2.80;;;19.40;99.90;;;;;;4948035;29;20193;-86
2023/07/01 04:32:11;;;;;;;3.43;3.20;;;19.30;99.90;;;;;;4944998;28;20845;-86
2023/07/01 04:34:36;;;;;;;2.90;2.70;;;19.40;99.90;;;;;;4939960;29;20222;-86
2023/07/01 04:37:02;;;;;;;2.77;2.77;;;19.40;99.90;;;;;;4945287;29;20185;-86
2023/07/01 04:39:27;;;;;;;2.73;2.57;;;19.40;99.90;;;;;;4941612;28;20911;-86
2023/07/01 04:41:56;;;;;;;2.80;2.70;;;19.40;99.90;;;;;;4942247;29;20253;-86
2023/07/01 04:44:24;;;;;;;6.10;2.63;;;19.50;99.90;;;;;;4937125;28;20660;-86
2023/07/01 04:46:50;;;;;;;3.23;3.13;;;19.50;99.90;;;;;;4940343;29;20856;-86
2023/07/01 04:49:15;;;;;;;3.03;2.83;;;19.50;99.90;;;;;;4934731;29;20492;-87
2023/07/01 04:51:41;;;;;;;2.90;2.70;;;19.60;99.90;;;;;;4928790;29;20448;-87
2023/07/01 04:54:07;;;;;;;2.80;2.80;;;19.60;99.90;;;;;;4942472;28;20208;-85
2023/07/01 04:56:32;;;;;;;3.57;3.30;;;19.60;99.90;;;;;;4944462;28;20233;-86
2023/07/01 04:58:58;;;;;;;2.80;2.80;;;19.50;99.90;;;;;;4941726;28;20253;-86
2023/07/01 05:01:24;;;;;;;3.43;3.23;;;19.50;99.90;;;;;;4943003;29;20194;-87
2023/07/01 05:03:49;;;;;;;5.13;2.67;;;19.60;99.90;;;;;;4930677;29;20603;-86
2023/07/01 05:06:15;;;;;;;2.80;2.80;;;19.60;99.90;;;;;;4943001;29;20231;-87
2023/07/01 05:08:41;;;;;;;3.53;3.40;;;19.70;99.90;;;;;;4936608;28;20218;-86
2023/07/01 05:11:06;;;;;;;3.57;3.47;;;19.60;99.90;;;;;;4943687;29;20270;-85
2023/07/01 05:13:32;;;;;;;2.67;2.67;;;19.70;99.90;;;;;;4941129;29;20501;-86
2023/07/01 05:15:58;;;;;;;4.30;3.27;;;19.70;99.90;;;;;;4957838;28;20327;-85
2023/07/01 05:18:23;;;;;;;3.80;2.77;;;19.70;99.90;;;;;;4950596;29;20266;-86
2023/07/01 05:20:49;;;;;;;3.40;3.30;;;19.70;99.90;;;;;;4950011;29;20264;-85
2023/07/01 05:23:14;;;;;;;3.20;3.10;;;19.90;99.90;;;;;;4950988;29;20205;-86
2023/07/01 05:25:40;;;;;;;2.90;2.90;;;20.00;99.90;;;;;;4945196;29;20190;-85
2023/07/01 05:35:04;;;;;;;4.60;2.93;;;20.10;99.90;;;;;;4938275;29;20472;-85
2023/07/01 05:37:29;;;;;;;3.37;3.00;;;20.10;99.90;;;;;;4961034;29;20434;-85
2023/07/01 05:39:55;;;;;;;3.40;3.20;;;20.20;99.90;;;;;;4964727;29;20525;-86
2023/07/01 05:42:20;;;;;;;3.47;3.27;;;20.30;99.90;;;;;;4961978;29;20233;-87
2023/07/01 05:44:46;;;;;;;7.03;6.53;;;20.20;99.90;;;;;;4942009;29;20183;-89
2023/07/01 05:47:12;;;;;;;3.20;3.10;;;20.30;99.90;;;;;;4937674;29;20269;-87
2023/07/01 05:49:37;;;;;;;4.07;3.30;;;20.40;99.90;;;;;;4943550;29;20280;-86
2023/07/01 05:52:03;;;;;;;3.20;3.10;;;20.40;99.90;;;;;;4941625;29;20286;-87
2023/07/01 05:54:28;;;;;;;3.73;3.57;;;20.30;99.90;;;;;;4937550;29;20208;-86
2023/07/01 05:56:54;;;;;;;3.53;3.30;;;20.40;99.90;;;;;;4939173;29;20444;-87
2023/07/01 05:59:20;;;;;;;3.30;3.17;;;20.50;99.90;;;;;;4942387;29;20768;-86
2023/07/01 06:01:46;;;;;;;3.40;3.30;;;20.30;99.90;;;;;;4942206;28;20910;-86
2023/07/01 06:04:11;;;;;;;3.23;3.03;;;20.30;99.90;;;;;;4942389;29;20509;-84
2023/07/01 06:06:38;;;;;;;3.20;2.90;;;20.00;99.90;;;;;;4943421;29;20202;-88
2023/07/01 06:09:04;;;;;;;4.47;4.07;;;19.90;99.90;;;;;;4941154;29;20289;-87
2023/07/01 06:11:30;;;;;;;2.80;2.80;;;19.80;99.90;;;;;;4946095;29;20855;-87
2023/07/01 06:13:55;;;;;;;3.00;3.00;;;19.70;99.90;;;;;;4938776;29;20442;-87
2023/07/01 06:16:21;;;;;;;3.47;3.17;;;19.50;99.90;;;;;;4940465;29;20211;-87
2023/07/01 06:18:47;;;;;;;3.17;2.97;;;19.40;99.90;;;;;;4945664;29;20214;-86
2023/07/01 06:21:12;;;;;;;4.40;3.30;;;19.10;99.90;;;;;;4941545;29;20301;-87
2023/07/01 06:23:38;;;;;;;3.53;3.40;;;18.90;99.90;;;;;;4936706;29;20237;-85
2023/07/01 06:26:05;;;;;;;3.27;3.17;;;18.90;99.90;;;;;;4940701;29;20562;-86
2023/07/01 06:28:31;;;;;;;3.20;3.07;;;18.70;99.90;;;;;;4945033;29;20194;-87
2023/07/01 06:30:56;;;;;;;3.20;3.07;;;18.60;99.90;;;;;;4949846;29;20434;-86
2023/07/01 06:33:22;;;;;;;3.70;3.50;;;18.60;99.90;;;;;;4942052;29;21263;-85
2023/07/01 06:35:48;;;;;;;3.80;3.70;;;18.50;99.90;;;;;;4945541;29;20235;-85
2023/07/01 06:38:13;;;;;;;3.30;3.10;;;18.30;99.90;;;;;;4940116;29;20756;-87
2023/07/01 06:40:39;;;;;;;3.40;3.30;;;18.30;99.90;;;;;;4952073;29;20187;-86
2023/07/01 06:43:05;;;;;;;4.10;3.80;;;18.30;99.90;;;;;;4947440;28;20207;-84
2023/07/01 06:45:31;;;;;;;4.10;3.90;;;18.40;99.90;;;;;;4955049;29;20360;-84
2023/07/01 06:47:57;;;;;;;3.93;3.73;;;18.30;99.90;;;;;;4959920;28;20701;-84
2023/07/01 06:50:23;;;;;;;3.27;3.27;;;18.20;99.90;;;;;;4951727;28;20443;-81
2023/07/01 06:52:51;;;;;;;3.20;3.20;;;18.10;99.90;;;;;;4953107;29;20427;-83
2023/07/01 06:55:17;;;;;;;3.67;3.57;;;18.20;99.90;;;;;;4956973;29;20285;-84
2023/07/01 06:57:43;;;;;;;3.30;3.20;;;18.10;99.90;;;;;;4953463;29;20457;-82
2023/07/01 07:00:12;;;;;;;3.63;3.33;;;18.00;99.90;;;;;;4948774;29;20434;-83
2023/07/01 07:02:39;;;;;;;3.20;3.10;;;17.90;99.90;;;;;;4947347;29;20217;-82
2023/07/01 07:05:06;;;;;;;3.17;3.00;;;17.70;99.90;;;;;;4942163;29;20453;-84
2023/07/01 07:07:32;;;;;;;3.47;3.00;;;17.70;99.90;;;;;;4947318;28;20526;-83
2023/07/01 07:09:58;;;;;;;3.83;3.50;;;17.80;99.90;;;;;;4959681;28;20434;-83
2023/07/01 07:12:24;;;;;;;6.60;3.97;;;17.80;99.90;;;;;;4948643;29;20529;-82
2023/07/01 07:18:51;;;;;;;3.80;3.70;;;18.00;99.90;;;;;;4943067;29;20474;-83
2023/07/01 07:21:38;;;;;;;3.87;3.60;;;18.00;99.90;;;;;;4938399;29;20447;-83
2023/07/01 07:24:04;;;;;;;4.50;4.17;;;18.00;99.90;;;;;;4943555;29;20435;-85
2023/07/01 07:26:29;;;;;;;3.20;3.10;;;18.10;99.90;;;;;;4951209;29;20427;-84
2023/07/01 07:29:07;;;;;;;3.30;3.30;;;18.10;99.90;;;;;;4950384;29;20489;-82
2023/07/01 07:32:17;;;;;;;4.03;3.73;;;18.20;99.90;;;;;;4942967;29;20203;-85
2023/07/01 07:35:09;;;;;;;3.20;3.10;;;18.20;99.90;;;;;;4898018;29;20498;-84
2023/07/01 07:38:19;;;;;;;4.13;3.83;;;18.10;99.90;;;;;;4951908;28;20442;-84
2023/07/01 07:44:50;;;;;;;3.80;3.70;;;18.30;99.90;;;;;;4869001;29;20491;-84
2023/07/01 07:47:20;;;;;;;3.37;3.37;;;18.40;99.90;;;;;;4872906;29;20470;-86
2023/07/01 07:49:48;;;;;;;3.20;3.10;;;18.60;99.90;;;;;;4930848;29;20452;-81
2023/07/01 07:52:16;;;;;;;3.30;3.30;;;18.60;99.90;;;;;;4929480;29;20478;-83
2023/07/01 07:54:46;;;;;;;3.40;3.20;;;18.70;99.90;;;;;;4935932;29;20853;-83
2023/07/01 07:57:15;;;;;;;3.40;3.30;;;18.70;99.90;;;;;;4948026;29;20428;-82
2023/07/01 07:59:41;;;;;;;3.30;3.20;;;18.80;99.90;;;;;;4940362;29;21816;-84
2023/07/01 08:02:08;;;;;;;3.17;3.17;;;18.80;99.90;;;;;;4943160;29;20530;-82
2023/07/01 08:04:34;;;;;;;3.87;3.67;;;18.90;99.90;;;;;;4923068;28;20451;-80
2023/07/01 08:07:00;;;;;;;3.20;3.10;;;19.00;99.90;;;;;;4922457;29;20521;-80
2023/07/01 08:09:26;;;;;;;3.50;3.40;;;19.20;99.90;;;;;;4913309;28;21247;-86
2023/07/01 08:11:52;;;;;;;3.07;2.87;;;19.20;99.90;;;;;;4937586;29;20231;-86
2023/07/01 08:14:21;;;;;;;2.93;2.93;;;19.30;99.90;;;;;;4935522;29;20217;-84
2023/07/01 08:16:46;;;;;;;3.17;3.07;;;19.30;99.90;;;;;;4937684;29;20470;-83
2023/07/01 08:19:12;;;;;;;2.80;2.60;;;19.30;99.90;;;;;;4944215;28;20505;-81
2023/07/01 08:21:38;;;;;;;3.90;3.70;;;19.30;99.90;;;;;;4949148;28;20199;-80
2023/07/01 08:24:07;;;;;;;4.20;3.23;;;19.00;99.90;;;;;;4938084;28;20222;-80
2023/07/01 08:26:32;;;;;;;3.37;3.27;;;19.00;99.90;;;;;;4952984;28;21201;-81
2023/07/01 08:28:58;;;;;;;3.50;3.30;;;19.00;99.90;;;;;;4973890;28;20467;-83
2023/07/01 08:31:24;;;;;;;3.90;3.80;;;19.00;99.90;;;;;;4979497;28;20745;-85
2023/07/01 08:33:49;;;;;;;3.40;3.30;;;18.80;99.90;;;;;;4977147;28;20186;-86
2023/07/01 08:36:15;;;;;;;3.60;3.30;;;18.90;99.90;;;;;;4971935;28;20206;-87
2023/07/01 08:38:40;;;;;;;3.63;3.43;;;19.00;99.90;;;;;;4980738;28;20182;-82
2023/07/01 08:41:13;;;;;;;3.60;3.50;;;19.00;99.90;;;;;;4972310;28;20194;-86
2023/07/01 08:43:39;;;;;;;3.90;3.80;;;18.90;99.90;;;;;;4980721;28;20197;-82
2023/07/01 08:46:09;;;;;;;3.13;2.87;;;18.80;99.90;;;;;;4976281;28;20501;-86
2023/07/01 08:48:37;;;;;;;4.33;3.93;;;18.90;99.90;;;;;;4963627;28;20442;-85
2023/07/01 08:51:12;;;;;;;4.17;3.90;;;18.80;99.90;;;;;;4977925;28;20496;-81
2023/07/01 08:53:41;;;;;;;4.20;3.90;;;18.80;99.90;;;;;;4987459;28;20469;-84
2023/07/01 08:56:07;;;;;;;3.90;3.80;;;18.70;99.90;;;;;;4963520;28;20533;-85
2023/07/01 08:58:33;;;;;;;3.90;3.70;;;18.70;99.90;;;;;;4977950;28;20465;-85
2023/07/01 09:00:59;;;;;;;4.20;4.10;;;18.60;99.90;;;;;;4961239;28;20505;-82
2023/07/01 09:03:26;;;;;;;4.57;4.27;;;18.60;99.90;;;;;;4978554;28;20468;-84
2023/07/01 09:05:52;;;;;;;4.37;4.27;;;18.50;99.90;;;;;;4975461;28;20340;-81
2023/07/01 09:08:17;;;;;;;4.53;4.43;;;18.50;99.90;;;;;;4978141;28;21034;-83
2023/07/01 09:10:43;;;;;;;4.67;4.47;;;18.40;99.90;;;;;;4977467;28;20583;-83
2023/07/01 09:13:13;;;;;;;5.03;4.83;;;18.30;99.90;;;;;;4975272;28;20209;-82
2023/07/01 09:15:49;;;;;;;5.63;5.33;;;18.40;99.90;;;;;;4975242;28;20472;-84
2023/07/01 09:18:29;;;;;;;4.73;4.50;;;18.40;99.90;;;;;;4947215;28;20508;-79
2023/07/01 09:20:55;;;;;;;4.93;4.73;;;18.60;99.90;;;;;;4956460;28;20536;-82
2023/07/01 09:23:38;;;;;;;5.00;4.80;;;18.80;99.90;;;;;;4980028;28;20448;-83
2023/07/01 09:26:07;;;;;;;5.47;4.93;;;19.00;99.90;;;;;;4972218;28;20446;-83
2023/07/01 09:28:33;;;;;;;5.20;4.80;;;19.40;99.90;;;;;;4974405;28;20592;-84
2023/07/01 09:31:00;;;;;;;4.50;4.40;;;19.60;99.90;;;;;;4968308;28;20499;-85
2023/07/01 09:33:26;;;;;;;4.73;4.60;;;19.70;99.90;;;;;;4965712;28;20520;-85
2023/07/01 09:36:01;;;;;;;5.13;4.93;;;19.70;99.90;;;;;;4961888;28;20505;-85
2023/07/01 09:38:30;;;;;;;4.87;4.77;;;19.60;99.90;;;;;;4965568;28;20439;-87
2023/07/01 09:41:16;;;;;;;5.20;5.00;;;19.30;99.90;;;;;;4961244;28;20474;-82
2023/07/01 09:43:42;;;;;;;4.73;4.70;;;18.90;99.90;;;;;;4973187;28;20464;-85
2023/07/01 09:46:08;;;;;;;5.30;5.00;;;18.80;99.90;;;;;;4964765;28;20472;-80
2023/07/01 09:48:34;;;;;;;6.17;5.83;;;18.70;99.90;;;;;;4959035;28;20917;-81
2023/07/01 09:51:06;;;;;;;3.80;3.70;;;18.60;99.90;;;;;;4964183;28;20672;-81
2023/07/01 09:53:34;;;;;;;4.00;3.90;;;18.40;99.90;;;;;;4970061;28;20837;-82
2023/07/01 09:56:02;;;;;;;4.80;4.70;;;18.30;99.90;;;;;;4956808;28;20453;-79
2023/07/01 09:58:27;;;;;;;5.10;4.80;;;18.40;99.90;;;;;;4965464;28;20457;-80
2023/07/01 10:00:54;;;;;;;4.50;4.40;;;18.50;99.90;;;;;;4971304;28;20533;-83
2023/07/01 10:10:34;;;;;;;4.70;4.70;;;18.60;99.90;;;;;;4977402;28;20460;-91
2023/07/01 10:13:01;;;;;;;4.67;4.50;;;18.50;99.90;;;;;;4991617;28;21007;-91
2023/07/01 10:15:32;;;;;;;5.03;4.33;;;18.40;99.90;;;;;;5008362;28;20479;-91
2023/07/01 10:17:58;;;;;;;3.83;3.73;;;18.50;99.90;;;;;;5009249;28;20483;-93
2023/07/01 10:20:28;;;;;;;3.97;3.87;;;18.60;99.90;;;;;;4986564;28;20439;-92
2023/07/01 10:23:02;;;;;;;4.20;4.10;;;18.70;99.90;;;;;;5003955;28;20421;-92
2023/07/01 10:25:32;;;;;;;3.83;3.73;;;18.90;99.90;;;;;;5005559;28;20463;-91
2023/07/01 10:27:59;;;;;;;4.10;4.07;;;18.90;99.90;;;;;;5005049;28;20414;-92
2023/07/01 10:30:25;;;;;;;3.73;3.63;;;18.90;99.90;;;;;;5007532;28;20452;-92
2023/07/01 10:32:51;;;;;;;3.70;3.70;;;18.90;99.90;;;;;;5007383;28;20467;-92
2023/07/01 10:35:17;;;;;;;3.57;3.57;;;18.80;99.90;;;;;;4988160;28;20744;-92
2023/07/01 10:38:04;;;;;;;3.20;3.20;;;18.80;99.90;;;;;;4986641;28;20464;-92
2023/07/01 10:40:29;;;;;;;9.43;8.83;;;18.80;99.90;;;;;;4994101;28;20480;-94
2023/07/01 10:46:23;;;;;;;3.10;3.10;;;18.80;99.90;;;;;;5007024;28;20201;-92
2023/07/01 10:49:04;;;;;;;2.90;2.90;;;19.00;99.90;;;;;;5004976;28;20452;-92
2023/07/01 10:51:45;;;;;;;2.00;2.00;;;19.00;99.90;;;;;;4998060;28;20443;-93
2023/07/01 10:54:11;;;;;;;2.00;2.00;;;19.20;99.90;;;;;;5002239;28;20527;-88
2023/07/01 10:56:39;;;;;;;1.97;1.97;;;19.20;99.90;;;;;;4980714;28;20930;-90
2023/07/01 10:59:25;;;;;;;2.03;2.00;;;19.10;99.90;;;;;;4988523;28;20197;-89
2023/07/01 11:01:56;;;;;;;1.80;1.80;;;19.10;99.90;;;;;;4980182;28;20435;-89
2023/07/01 11:07:44;;;;;;;1.87;1.80;;;19.30;99.90;;;;;;4991237;28;20503;-90
2023/07/01 11:10:10;;;;;;;1.73;1.73;;;19.10;99.90;;;;;;4991835;28;20962;-90
2023/07/01 11:12:38;;;;;;;1.60;1.60;;;19.00;99.90;;;;;;4982344;28;21044;-90
2023/07/01 11:15:04;;;;;;;2.07;2.00;;;18.90;99.90;;;;;;4983053;28;20201;-91
2023/07/01 11:17:29;;;;;;;1.80;1.70;;;18.90;99.90;;;;;;4982210;28;20434;-90
2023/07/01 11:19:58;;;;;;;1.60;1.60;;;18.80;99.90;;;;;;4978670;28;20431;-91
2023/07/01 11:22:24;;;;;;;1.90;1.90;;;18.80;99.90;;;;;;5000108;28;20200;-90
2023/07/01 11:24:50;;;;;;;1.70;1.70;;;18.80;99.90;;;;;;4980591;28;20975;-90
2023/07/01 11:27:17;;;;;;;1.70;1.70;;;18.70;99.90;;;;;;4973943;28;20432;-88
2023/07/01 11:29:44;;;;;;;1.60;1.60;;;18.60;99.90;;;;;;4987076;28;20456;-90
2023/07/01 11:32:12;;;;;;;1.50;1.50;;;18.70;99.90;;;;;;5004536;28;20702;-89
2023/07/01 11:34:39;;;;;;;2.10;2.10;;;18.60;99.90;;;;;;4996323;28;20420;-90
2023/07/01 11:37:05;;;;;;;1.77;1.77;;;18.50;99.90;;;;;;4993741;28;20464;-92
2023/07/01 11:39:31;;;;;;;1.60;1.60;;;18.40;99.90;;;;;;4992392;28;20435;-91
2023/07/01 11:42:03;;;;;;;2.20;2.20;;;18.50;99.90;;;;;;4988812;28;20497;-89
2023/07/01 11:44:33;;;;;;;2.00;2.00;;;18.50;99.90;;;;;;4992171;28;20272;-91
2023/07/01 11:46:59;;;;;;;2.17;2.17;;;18.40;99.90;;;;;;5001656;28;20493;-92
2023/07/01 11:49:29;;;;;;;2.20;2.20;;;18.50;99.90;;;;;;4989822;28;20533;-92
2023/07/01 11:52:00;;;;;;;2.07;2.07;;;18.50;99.90;;;;;;4991083;28;20169;-92
2023/07/01 11:54:42;;;;;;;2.37;2.37;;;18.50;99.90;;;;;;4996710;28;20413;-93
2023/07/01 11:57:15;;;;;;;2.30;2.30;;;18.60;99.90;;;;;;4974745;28;20476;-88
2023/07/01 12:00:03;;;;;;;2.60;2.60;;;18.70;99.90;;;;;;4986029;28;20436;-91
2023/07/01 12:02:31;;;;;;;2.10;2.10;;;18.70;99.90;;;;;;4981105;28;20978;-89
2023/07/01 12:04:57;;;;;;;2.20;2.20;;;18.80;99.90;;;;;;4978862;28;20432;-89
2023/07/01 12:07:26;;;;;;;2.53;2.53;;;18.90;99.90;;;;;;4986826;28;20501;-90
2023/07/01 12:09:52;;;;;;;2.70;2.70;;;18.90;99.90;;;;;;4986330;28;20555;-90
2023/07/01 12:12:38;;;;;;;2.73;2.73;;;19.00;99.90;;;;;;5005344;28;20452;-90
2023/07/01 12:15:07;;;;;;;2.20;2.20;;;19.10;99.90;;;;;;4994942;28;20462;-90
2023/07/01 12:17:34;;;;;;;2.93;2.93;;;19.10;99.90;;;;;;4973719;28;20614;-92
2023/07/01 12:20:01;;;;;;;3.70;3.50;;;19.20;99.90;;;;;;5006157;28;20541;-91
2023/07/01 12:22:30;;;;;;;2.60;2.60;;;19.10;99.90;;;;;;4993428;28;20444;-91
2023/07/01 12:24:57;;;;;;;3.70;3.60;;;19.10;99.90;;;;;;4999287;28;20432;-91
2023/07/01 12:27:23;;;;;;;2.90;2.90;;;19.00;99.90;;;;;;4998305;28;20454;-91
2023/07/01 12:29:49;;;;;;;3.90;3.70;;;19.10;99.90;;;;;;4989471;28;20472;-90
2023/07/01 12:32:14;;;;;;;3.63;3.33;;;19.00;99.90;;;;;;4990409;28;20439;-93
2023/07/01 12:34:40;;;;;;;2.97;2.97;;;19.00;99.90;;;;;;4998574;28;20576;-90
2023/07/01 12:37:07;;;;;;;2.07;1.97;;;19.00;99.90;;;;;;4979761;28;20204;-91
2023/07/01 12:39:33;;;;;;;2.87;2.67;;;19.00;99.90;;;;;;4981077;28;20756;-91
2023/07/01 12:41:59;;;;;;;2.93;2.83;;;19.00;99.90;;;;;;4983433;28;20440;-90
2023/07/01 12:44:25;;;;;;;2.37;2.37;;;19.10;99.90;;;;;;4989595;28;20474;-90
2023/07/01 12:46:53;;;;;;;2.03;2.03;;;19.10;99.90;;;;;;4997057;28;20543;-90
2023/07/01 12:49:19;;;;;;;2.70;2.60;;;19.10;99.90;;;;;;5004389;23;20476;-74
2023/07/01 12:51:45;;;;;;;2.40;2.40;;;19.00;99.90;;;;;;4972638;28;21027;-74
2023/07/01 12:54:11;;;;;;;2.70;2.70;;;19.00;99.90;;;;;;4970892;28;20216;-74
2023/07/01 12:56:38;;;;;;;2.60;2.53;;;19.10;99.90;;;;;;4953537;28;20225;-75
2023/07/01 12:59:03;;;;;;;3.43;3.40;;;19.10;99.90;;;;;;4969942;28;20548;-76
2023/07/01 13:01:29;;;;;;;2.87;2.40;;;19.10;99.90;;;;;;4965801;28;20523;-75
2023/07/01 13:03:55;;;;;;;3.87;2.33;;;19.00;99.90;;;;;;4973970;28;20308;-76
2023/07/01 13:06:29;;;;;;;2.37;2.37;;;19.20;99.90;;;;;;4970639;28;20582;-74
2023/07/01 13:09:03;;;;;;;1.87;1.87;;;19.50;99.90;;;;;;4965073;28;20723;-75
2023/07/01 13:11:36;;;;;;;2.20;2.20;;;19.80;99.90;;;;;;4959122;28;20449;-75
2023/07/01 13:14:07;;;;;;;2.20;2.20;;;20.10;99.90;;;;;;4959422;28;21308;-75
2023/07/01 13:16:35;;;;;;;1.90;1.80;;;20.30;99.90;;;;;;4957705;28;20609;-76
2023/07/01 13:19:12;;;;;;;2.70;2.47;;;20.70;99.90;;;;;;4960465;28;20467;-75
2023/07/01 13:21:43;;;;;;;2.40;2.40;;;21.10;99.90;;;;;;4960862;28;20433;-74
2023/07/01 13:24:09;;;;;;;2.10;2.10;;;21.20;99.90;;;;;;4962400;28;20448;-73